Time;durP1;ratioP1;P1;durP2;ratioP2;P2;SDS_P1;SDS_P2;PMS_P1;PMS_P2;Temp;Humidity;BMP_temperature;BMP_pressure;BME280_temperature;BME280_humidity;BME280_pressure;Samples;Min_cycle;Max_cycle;Signal;HPM_P1;HPM_P2
2024/03/16 00:01:00;;;;;;;;;;;;;;;;;;4969801;28;20012;-80
2024/03/16 00:03:28;;;;;;;;;;;;;;;;;;4969919;28;19965;-80
2024/03/16 00:05:55;;;;;;;;;;;;;;;;;;4969218;28;20421;-80
2024/03/16 00:08:22;;;;;;;;;;;;;;;;;;4969047;28;20371;-80
2024/03/16 00:10:50;;;;;;;;;;;;;;;;;;4968604;28;19930;-80
2024/03/16 00:13:17;;;;;;;;;;;;;;;;;;4969427;28;19937;-80
2024/03/16 00:15:44;;;;;;;;;;;;;;;;;;4969131;28;19976;-80
2024/03/16 00:18:11;;;;;;;;;;;;;;;;;;4967836;28;19930;-80
2024/03/16 00:20:40;;;;;;;;;;;;;;;;;;4969263;28;19952;-80
2024/03/16 00:23:07;;;;;;;;;;;;;;;;;;4969063;28;19930;-81
2024/03/16 00:25:34;;;;;;;;;;;;;;;;;;4968169;28;19937;-80
2024/03/16 00:28:01;;;;;;;;;;;;;;;;;;4969188;28;19934;-80
2024/03/16 00:30:29;;;;;;;;;;;;;;;;;;4968861;28;20353;-81
2024/03/16 00:32:56;;;;;;;;;;;;;;;;;;4968399;28;19934;-81
2024/03/16 00:35:24;;;;;;;;;;;;;;;;;;4968809;28;19930;-81
2024/03/16 00:37:51;;;;;;;;;;;;;;;;;;4968354;28;19930;-81
2024/03/16 00:40:19;;;;;;;;;;;;;;;;;;4968733;28;19983;-80
2024/03/16 00:42:46;;;;;;;;;;;;;;;;;;4968402;28;19934;-80
2024/03/16 00:45:13;;;;;;;;;;;;;;;;;;4968390;28;20009;-80
2024/03/16 00:47:40;;;;;;;;;;;;;;;;;;4968548;28;20021;-80
2024/03/16 00:50:08;;;;;;;;;;;;;;;;;;4963014;28;19934;-81
2024/03/16 00:52:35;;;;;;;;;;;;;;;;;;4968115;28;20025;-80
2024/03/16 00:55:03;;;;;;;;;;;;;;;;;;4968421;28;20386;-83
2024/03/16 00:57:30;;;;;;;;;;;;;;;;;;4968551;28;20454;-83
2024/03/16 00:59:57;;;;;;;;;;;;;;;;;;4968342;28;19934;-83
2024/03/16 01:02:24;;;;;;;;;;;;;;;;;;4968852;28;19930;-83
2024/03/16 01:04:51;;;;;;;;;;;;;;;;;;4968863;28;19931;-82
2024/03/16 01:07:18;;;;;;;;;;;;;;;;;;4968589;28;19934;-82
2024/03/16 01:09:45;;;;;;;;;;;;;;;;;;4968260;28;19930;-83
2024/03/16 01:12:13;;;;;;;;;;;;;;;;;;4974287;28;19930;-82
2024/03/16 01:14:40;;;;;;;;;;;;;;;;;;4971846;28;20459;-81
2024/03/16 01:17:08;;;;;;;;;;;;;;;;;;4972191;28;19930;-81
2024/03/16 01:19:38;;;;;;;;;;;;;;;;;;4971594;28;20333;-82
2024/03/16 01:22:05;;;;;;;;;;;;;;;;;;4971786;28;19938;-81
2024/03/16 01:24:32;;;;;;;;;;;;;;;;;;4971256;28;20397;-82
2024/03/16 01:26:59;;;;;;;;;;;;;;;;;;4971091;28;19930;-80
2024/03/16 01:29:26;;;;;;;;;;;;;;;;;;4971251;28;19930;-80
2024/03/16 01:31:53;;;;;;;;;;;;;;;;;;4971496;28;20374;-80
2024/03/16 01:34:20;;;;;;;;;;;;;;;;;;4970402;28;19942;-79
2024/03/16 01:36:48;;;;;;;;;;;;;;;;;;4971425;28;19930;-78
2024/03/16 01:39:16;;;;;;;;;;;;;;;;;;4971238;28;19975;-80
2024/03/16 01:41:43;;;;;;;;;;;;;;;;;;4971288;28;19984;-80
2024/03/16 01:44:10;;;;;;;;;;;;;;;;;;4970617;28;19949;-81
2024/03/16 01:46:39;;;;;;;;;;;;;;;;;;4973639;28;20423;-80
2024/03/16 01:49:07;;;;;;;;;;;;;;;;;;4971048;28;19930;-80
2024/03/16 01:51:34;;;;;;;;;;;;;;;;;;4966730;28;19937;-80
2024/03/16 01:54:02;;;;;;;;;;;;;;;;;;4970744;28;19934;-80
2024/03/16 01:56:29;;;;;;;;;;;;;;;;;;4970131;28;20027;-80
2024/03/16 01:58:56;;;;;;;;;;;;;;;;;;4968683;28;20042;-80
2024/03/16 02:01:23;;;;;;;;;;;;;;;;;;4970113;28;19930;-80
2024/03/16 02:03:51;;;;;;;;;;;;;;;;;;4975366;28;19964;-80
2024/03/16 02:06:18;;;;;;;;;;;;;;;;;;4976888;28;19999;-80
2024/03/16 02:08:45;;;;;;;;;;;;;;;;;;4972490;28;20029;-79
2024/03/16 02:11:12;;;;;;;;;;;;;;;;;;4971088;28;19930;-80
2024/03/16 02:13:39;;;;;;;;;;;;;;;;;;4970674;28;19930;-80
2024/03/16 02:16:06;;;;;;;;;;;;;;;;;;4970974;28;19987;-80
2024/03/16 02:18:33;;;;;;;;;;;;;;;;;;4971215;28;19926;-80
2024/03/16 02:21:00;;;;;;;;;;;;;;;;;;4970422;28;19980;-80
2024/03/16 02:23:30;;;;;;;;;;;;;;;;;;4970373;28;19934;-80
2024/03/16 02:25:57;;;;;;;;;;;;;;;;;;4970339;28;20377;-80
2024/03/16 02:28:25;;;;;;;;;;;;;;;;;;4971121;28;19934;-80
2024/03/16 02:30:52;;;;;;;;;;;;;;;;;;4971111;28;20396;-81
2024/03/16 02:33:20;;;;;;;;;;;;;;;;;;4969385;28;19930;-80
2024/03/16 02:35:47;;;;;;;;;;;;;;;;;;4970214;28;19941;-80
2024/03/16 02:38:14;;;;;;;;;;;;;;;;;;4968676;28;19942;-81
2024/03/16 02:40:42;;;;;;;;;;;;;;;;;;4970323;28;19984;-81
2024/03/16 02:43:10;;;;;;;;;;;;;;;;;;4970294;28;19934;-80
2024/03/16 02:45:37;;;;;;;;;;;;;;;;;;4970098;28;19934;-80
2024/03/16 02:48:05;;;;;;;;;;;;;;;;;;4970828;28;19931;-80
2024/03/16 02:50:33;;;;;;;;;;;;;;;;;;4969057;28;19989;-80
2024/03/16 02:53:00;;;;;;;;;;;;;;;;;;4969396;28;20454;-80
2024/03/16 02:55:28;;;;;;;;;;;;;;;;;;4969791;28;20393;-80
2024/03/16 02:57:55;;;;;;;;;;;;;;;;;;4968493;28;19926;-82
2024/03/16 03:00:22;;;;;;;;;;;;;;;;;;4969423;28;19930;-81
2024/03/16 03:02:49;;;;;;;;;;;;;;;;;;4969721;28;19930;-82
2024/03/16 03:05:20;;;;;;;;;;;;;;;;;;4970653;28;20478;-80
2024/03/16 03:07:48;;;;;;;;;;;;;;;;;;4970130;28;19934;-80
2024/03/16 03:10:15;;;;;;;;;;;;;;;;;;4970683;28;19930;-80
2024/03/16 03:12:42;;;;;;;;;;;;;;;;;;4969914;28;19974;-81
2024/03/16 03:15:11;;;;;;;;;;;;;;;;;;4969177;28;19991;-81
2024/03/16 03:17:38;;;;;;;;;;;;;;;;;;4970076;28;20208;-81
2024/03/16 03:20:08;;;;;;;;;;;;;;;;;;4970932;28;19926;-81
2024/03/16 03:22:35;;;;;;;;;;;;;;;;;;4971767;28;19999;-80
2024/03/16 03:25:03;;;;;;;;;;;;;;;;;;4966914;28;19934;-81
2024/03/16 03:27:30;;;;;;;;;;;;;;;;;;4970774;28;19976;-81
2024/03/16 03:29:57;;;;;;;;;;;;;;;;;;4970609;28;19930;-82
2024/03/16 03:32:24;;;;;;;;;;;;;;;;;;4970630;28;20013;-81
2024/03/16 03:34:51;;;;;;;;;;;;;;;;;;4971767;28;19934;-81
2024/03/16 03:37:20;;;;;;;;;;;;;;;;;;4971576;28;19930;-81
2024/03/16 03:39:51;;;;;;;;;;;;;;;;;;4971628;28;19930;-81
2024/03/16 03:42:19;;;;;;;;;;;;;;;;;;4969021;28;19934;-81
2024/03/16 03:44:50;;;;;;;;;;;;;;;;;;4969329;28;19929;-80
2024/03/16 03:47:17;;;;;;;;;;;;;;;;;;4971999;28;19934;-80
2024/03/16 03:49:50;;;;;;;;;;;;;;;;;;4974375;28;20020;-82
2024/03/16 03:52:18;;;;;;;;;;;;;;;;;;4969935;28;19988;-80
2024/03/16 03:54:45;;;;;;;;;;;;;;;;;;4969977;28;19960;-81
2024/03/16 03:57:12;;;;;;;;;;;;;;;;;;4968435;28;20007;-81
2024/03/16 03:59:39;;;;;;;;;;;;;;;;;;4964357;28;20016;-80
2024/03/16 04:02:06;;;;;;;;;;;;;;;;;;4969565;28;19937;-81
2024/03/16 04:04:33;;;;;;;;;;;;;;;;;;4969233;28;19987;-81
2024/03/16 04:07:00;;;;;;;;;;;;;;;;;;4968213;28;19930;-80
2024/03/16 04:09:27;;;;;;;;;;;;;;;;;;4969782;28;20010;-81
2024/03/16 04:11:54;;;;;;;;;;;;;;;;;;4968912;28;20362;-82
2024/03/16 04:14:22;;;;;;;;;;;;;;;;;;4969987;28;19926;-82
2024/03/16 04:16:49;;;;;;;;;;;;;;;;;;4969126;28;19971;-81
2024/03/16 04:19:17;;;;;;;;;;;;;;;;;;4969077;28;20455;-82
2024/03/16 04:21:44;;;;;;;;;;;;;;;;;;4956735;28;20022;-83
2024/03/16 04:24:12;;;;;;;;;;;;;;;;;;4967924;28;20432;-81
2024/03/16 04:26:39;;;;;;;;;;;;;;;;;;4960895;28;19998;-82
2024/03/16 04:29:06;;;;;;;;;;;;;;;;;;4971012;28;19957;-75
2024/03/16 04:31:34;;;;;;;;;;;;;;;;;;4970007;28;19991;-73
2024/03/16 04:34:01;;;;;;;;;;;;;;;;;;4968104;28;19930;-76
2024/03/16 04:36:28;;;;;;;;;;;;;;;;;;4969478;28;19975;-76
2024/03/16 04:38:55;;;;;;;;;;;;;;;;;;4967486;28;19930;-76
2024/03/16 04:41:22;;;;;;;;;;;;;;;;;;4959917;28;19930;-77
2024/03/16 04:43:50;;;;;;;;;;;;;;;;;;4968356;28;19930;-77
2024/03/16 04:46:17;;;;;;;;;;;;;;;;;;4964368;28;19930;-77
2024/03/16 04:48:44;;;;;;;;;;;;;;;;;;4967692;28;19968;-77
2024/03/16 04:51:14;;;;;;;;;;;;;;;;;;4968623;28;19937;-76
2024/03/16 04:53:41;;;;;;;;;;;;;;;;;;4964904;28;19930;-77
2024/03/16 04:56:08;;;;;;;;;;;;;;;;;;4968463;28;19934;-77
2024/03/16 04:58:35;;;;;;;;;;;;;;;;;;4968567;28;19930;-77
2024/03/16 05:01:02;;;;;;;;;;;;;;;;;;4968211;28;19930;-78
2024/03/16 05:03:30;;;;;;;;;;;;;;;;;;4968301;28;19930;-77
2024/03/16 05:05:58;;;;;;;;;;;;;;;;;;4964974;28;19934;-78
2024/03/16 05:08:25;;;;;;;;;;;;;;;;;;4966500;28;19929;-78
2024/03/16 05:10:52;;;;;;;;;;;;;;;;;;4967291;28;20313;-78
2024/03/16 05:13:19;;;;;;;;;;;;;;;;;;4967873;28;19969;-78
2024/03/16 05:15:46;;;;;;;;;;;;;;;;;;4973097;28;19939;-78
2024/03/16 05:18:14;;;;;;;;;;;;;;;;;;4967806;28;19969;-76
2024/03/16 05:20:41;;;;;;;;;;;;;;;;;;4960601;28;20371;-76
2024/03/16 05:23:08;;;;;;;;;;;;;;;;;;4967049;28;20459;-78
2024/03/16 05:25:35;;;;;;;;;;;;;;;;;;4968019;28;19936;-79
2024/03/16 05:28:02;;;;;;;;;;;;;;;;;;4967777;28;19984;-77
2024/03/16 05:30:29;;;;;;;;;;;;;;;;;;4968316;28;20021;-77
2024/03/16 05:32:57;;;;;;;;;;;;;;;;;;4967922;28;20333;-77
2024/03/16 05:35:28;;;;;;;;;;;;;;;;;;4968192;28;19953;-77
2024/03/16 05:37:55;;;;;;;;;;;;;;;;;;4967357;28;19930;-77
2024/03/16 05:40:22;;;;;;;;;;;;;;;;;;4961844;28;19931;-75
2024/03/16 05:42:49;;;;;;;;;;;;;;;;;;4967245;28;19933;-79
2024/03/16 05:45:16;;;;;;;;;;;;;;;;;;4967940;28;19984;-78
2024/03/16 05:47:44;;;;;;;;;;;;;;;;;;4968929;28;19979;-77
2024/03/16 05:50:11;;;;;;;;;;;;;;;;;;4967868;28;19964;-77
2024/03/16 05:52:38;;;;;;;;;;;;;;;;;;4969780;28;19935;-77
2024/03/16 05:55:05;;;;;;;;;;;;;;;;;;4970979;28;19934;-77
2024/03/16 05:57:32;;;;;;;;;;;;;;;;;;4970498;28;19984;-78
2024/03/16 06:00:00;;;;;;;;;;;;;;;;;;4971245;28;19930;-78
2024/03/16 06:02:27;;;;;;;;;;;;;;;;;;4970863;28;20024;-78
2024/03/16 06:04:54;;;;;;;;;;;;;;;;;;4970177;28;19934;-79
2024/03/16 06:07:21;;;;;;;;;;;;;;;;;;4970359;28;20316;-79
2024/03/16 06:09:48;;;;;;;;;;;;;;;;;;4971005;28;19942;-79
2024/03/16 06:12:15;;;;;;;;;;;;;;;;;;4970905;28;19976;-78
2024/03/16 06:14:43;;;;;;;;;;;;;;;;;;4968804;28;19965;-79
2024/03/16 06:17:10;;;;;;;;;;;;;;;;;;4970798;28;19931;-78
2024/03/16 06:19:37;;;;;;;;;;;;;;;;;;4970019;28;20034;-79
2024/03/16 06:22:05;;;;;;;;;;;;;;;;;;4971402;28;20279;-78
2024/03/16 06:24:32;;;;;;;;;;;;;;;;;;4970973;28;19999;-77
2024/03/16 06:27:05;;;;;;;;;;;;;;;;;;4969955;28;19976;-78
2024/03/16 06:29:32;;;;;;;;;;;;;;;;;;4970222;28;20316;-77
2024/03/16 06:32:06;;;;;;;;;;;;;;;;;;4969141;28;20258;-78
2024/03/16 06:34:33;;;;;;;;;;;;;;;;;;4969570;28;19925;-77
2024/03/16 06:37:00;;;;;;;;;;;;;;;;;;4970054;28;19973;-77
2024/03/16 06:39:28;;;;;;;;;;;;;;;;;;4970509;28;20016;-77
2024/03/16 06:41:56;;;;;;;;;;;;;;;;;;4969930;28;20035;-77
2024/03/16 06:44:23;;;;;;;;;;;;;;;;;;4969892;28;19930;-77
2024/03/16 06:46:51;;;;;;;;;;;;;;;;;;4969641;28;19930;-77
2024/03/16 06:49:18;;;;;;;;;;;;;;;;;;4965342;28;19930;-77
2024/03/16 06:51:45;;;;;;;;;;;;;;;;;;4970239;28;19977;-75
2024/03/16 06:54:13;;;;;;;;;;;;;;;;;;4970235;28;20369;-76
2024/03/16 06:56:40;;;;;;;;;;;;;;;;;;4970286;28;19948;-77
2024/03/16 06:59:07;;;;;;;;;;;;;;;;;;4971696;28;19985;-76
2024/03/16 07:01:35;;;;;;;;;;;;;;;;;;4967591;28;20009;-79
2024/03/16 07:04:02;;;;;;;;;;;;;;;;;;4968039;28;19930;-77
2024/03/16 07:06:29;;;;;;;;;;;;;;;;;;4964317;28;19941;-79
2024/03/16 07:08:59;;;;;;;;;;;;;;;;;;4965874;28;20028;-78
2024/03/16 07:11:27;;;;;;;;;;;;;;;;;;4975313;28;20027;-78
2024/03/16 07:13:54;;;;;;;;;;;;;;;;;;4958002;28;19976;-76
2024/03/16 07:16:21;;;;;;;;;;;;;;;;;;4962579;28;19965;-78
2024/03/16 07:18:48;;;;;;;;;;;;;;;;;;4964226;28;19930;-77
2024/03/16 07:21:15;;;;;;;;;;;;;;;;;;4969390;28;19941;-78
2024/03/16 07:23:43;;;;;;;;;;;;;;;;;;4956678;28;19931;-78
2024/03/16 07:26:10;;;;;;;;;;;;;;;;;;4963043;28;19930;-78
2024/03/16 07:28:38;;;;;;;;;;;;;;;;;;4964499;28;19976;-77
2024/03/16 07:31:05;;;;;;;;;;;;;;;;;;4966841;28;19937;-77
2024/03/16 07:33:33;;;;;;;;;;;;;;;;;;4966968;28;19984;-77
2024/03/16 07:36:01;;;;;;;;;;;;;;;;;;4965974;28;19934;-74
2024/03/16 07:38:28;;;;;;;;;;;;;;;;;;4967449;28;19937;-74
2024/03/16 07:40:56;;;;;;;;;;;;;;;;;;4962248;28;19930;-75
2024/03/16 07:43:23;;;;;;;;;;;;;;;;;;4958030;28;20024;-75
2024/03/16 07:45:50;;;;;;;;;;;;;;;;;;4958115;28;19934;-74
2024/03/16 07:48:17;;;;;;;;;;;;;;;;;;4964866;28;20337;-73
2024/03/16 07:50:44;;;;;;;;;;;;;;;;;;4966019;28;20020;-73
2024/03/16 07:53:11;;;;;;;;;;;;;;;;;;4964321;28;20397;-73
2024/03/16 07:55:38;;;;;;;;;;;;;;;;;;4961469;28;20029;-74
2024/03/16 07:58:07;;;;;;;;;;;;;;;;;;4966420;28;19965;-73
2024/03/16 08:00:34;;;;;;;;;;;;;;;;;;4969110;28;19992;-72
2024/03/16 08:03:01;;;;;;;;;;;;;;;;;;4959892;28;20011;-70
2024/03/16 08:05:30;;;;;;;;;;;;;;;;;;4961682;28;20405;-76
2024/03/16 08:07:57;;;;;;;;;;;;;;;;;;4963211;28;19937;-74
2024/03/16 08:10:24;;;;;;;;;;;;;;;;;;4965523;28;19934;-75
2024/03/16 08:12:51;;;;;;;;;;;;;;;;;;4963072;28;19996;-75
2024/03/16 08:15:18;;;;;;;;;;;;;;;;;;4964524;28;20024;-76
2024/03/16 08:17:45;;;;;;;;;;;;;;;;;;4958441;28;19934;-79
2024/03/16 08:20:13;;;;;;;;;;;;;;;;;;4963145;28;19934;-78
2024/03/16 08:22:40;;;;;;;;;;;;;;;;;;4961663;28;19945;-76
2024/03/16 08:25:07;;;;;;;;;;;;;;;;;;4965222;28;19935;-75
2024/03/16 08:27:35;;;;;;;;;;;;;;;;;;4960062;28;19934;-75
2024/03/16 08:30:03;;;;;;;;;;;;;;;;;;4963810;28;19941;-74
2024/03/16 08:32:32;;;;;;;;;;;;;;;;;;4957847;28;20466;-75
2024/03/16 08:34:59;;;;;;;;;;;;;;;;;;4965041;28;20408;-76
2024/03/16 08:37:26;;;;;;;;;;;;;;;;;;4962088;28;19952;-75
2024/03/16 08:39:53;;;;;;;;;;;;;;;;;;4963034;28;20351;-75
2024/03/16 08:42:20;;;;;;;;;;;;;;;;;;4968157;28;19934;-75
2024/03/16 08:44:47;;;;;;;;;;;;;;;;;;4968801;28;20763;-75
2024/03/16 08:47:15;;;;;;;;;;;;;;;;;;4974336;28;20301;-74
2024/03/16 08:49:42;;;;;;;;;;;;;;;;;;4996093;28;20013;-74
2024/03/16 08:52:10;;;;;;;;;;;;;;;;;;4967512;28;19930;-70
2024/03/16 08:54:37;;;;;;;;;;;;;;;;;;4965598;28;19934;-71
2024/03/16 08:57:04;;;;;;;;;;;;;;;;;;4966724;28;19984;-70
2024/03/16 08:59:32;;;;;;;;;;;;;;;;;;4970352;28;20408;-70
2024/03/16 09:01:59;;;;;;;;;;;;;;;;;;4964404;28;20057;-70
2024/03/16 09:04:26;;;;;;;;;;;;;;;;;;4962423;28;19995;-74
2024/03/16 09:06:53;;;;;;;;;;;;;;;;;;4967129;28;19938;-74
2024/03/16 09:09:21;;;;;;;;;;;;;;;;;;4967728;28;20015;-75
2024/03/16 09:11:49;;;;;;;;;;;;;;;;;;4968309;28;20012;-76
2024/03/16 09:14:16;;;;;;;;;;;;;;;;;;4964023;28;19934;-75
2024/03/16 09:16:43;;;;;;;;;;;;;;;;;;4971785;28;19984;-76
2024/03/16 09:19:10;;;;;;;;;;;;;;;;;;4964863;28;19930;-76
2024/03/16 09:21:37;;;;;;;;;;;;;;;;;;4962179;28;19938;-73
2024/03/16 09:24:05;;;;;;;;;;;;;;;;;;4966789;28;19934;-75
2024/03/16 09:26:32;;;;;;;;;;;;;;;;;;4958809;28;19930;-75
2024/03/16 09:28:59;;;;;;;;;;;;;;;;;;4966922;28;19962;-74
2024/03/16 09:31:26;;;;;;;;;;;;;;;;;;4959455;28;20830;-75
2024/03/16 09:33:53;;;;;;;;;;;;;;;;;;4963627;28;19930;-79
2024/03/16 09:36:20;;;;;;;;;;;;;;;;;;4965857;28;19966;-80
2024/03/16 09:38:48;;;;;;;;;;;;;;;;;;4978476;28;19930;-77
2024/03/16 09:41:15;;;;;;;;;;;;;;;;;;4968627;28;20442;-78
2024/03/16 09:43:43;;;;;;;;;;;;;;;;;;4972482;28;20305;-78
2024/03/16 09:46:10;;;;;;;;;;;;;;;;;;4977270;28;19934;-79
2024/03/16 09:48:38;;;;;;;;;;;;;;;;;;4966635;28;19937;-74
2024/03/16 09:51:05;;;;;;;;;;;;;;;;;;4968889;28;19930;-75
2024/03/16 09:53:32;;;;;;;;;;;;;;;;;;4964259;28;20011;-74
2024/03/16 09:56:00;;;;;;;;;;;;;;;;;;4975658;28;19935;-73
2024/03/16 09:58:28;;;;;;;;;;;;;;;;;;4977231;28;19930;-73
2024/03/16 10:00:55;;;;;;;;;;;;;;;;;;4970585;28;20024;-73
2024/03/16 10:03:22;;;;;;;;;;;;;;;;;;4963640;28;19934;-72
2024/03/16 10:05:49;;;;;;;;;;;;;;;;;;4962836;28;20017;-72
2024/03/16 10:08:18;;;;;;;;;;;;;;;;;;4966777;28;19973;-72
2024/03/16 10:10:46;;;;;;;;;;;;;;;;;;4968278;28;19976;-72
2024/03/16 10:13:13;;;;;;;;;;;;;;;;;;4965900;28;19930;-73
2024/03/16 10:15:41;;;;;;;;;;;;;;;;;;4963406;28;19930;-73
2024/03/16 10:18:08;;;;;;;;;;;;;;;;;;4963460;28;19961;-72
2024/03/16 10:20:35;;;;;;;;;;;;;;;;;;4975844;28;19992;-72
2024/03/16 10:23:02;;;;;;;;;;;;;;;;;;4966444;28;19938;-73
2024/03/16 10:25:29;;;;;;;;;;;;;;;;;;4968285;28;19930;-73
2024/03/16 10:27:57;;;;;;;;;;;;;;;;;;4962374;28;19961;-71
2024/03/16 10:30:24;;;;;;;;;;;;;;;;;;4956177;28;19931;-72
2024/03/16 10:32:53;;;;;;;;;;;;;;;;;;4969292;28;19930;-72
2024/03/16 10:35:25;;;;;;;;;;;;;;;;;;4963405;28;20010;-71
2024/03/16 10:37:52;;;;;;;;;;;;;;;;;;4966149;28;19942;-72
2024/03/16 10:40:19;;;;;;;;;;;;;;;;;;4993134;28;19935;-71
2024/03/16 10:42:46;;;;;;;;;;;;;;;;;;4968185;28;19930;-74
2024/03/16 10:45:16;;;;;;;;;;;;;;;;;;4958534;28;20372;-74
2024/03/16 10:47:44;;;;;;;;;;;;;;;;;;4963420;28;19930;-75
2024/03/16 10:50:11;;;;;;;;;;;;;;;;;;4965009;28;19946;-74
2024/03/16 10:52:38;;;;;;;;;;;;;;;;;;4964595;28;20000;-75
2024/03/16 10:55:07;;;;;;;;;;;;;;;;;;4957766;28;19935;-75
2024/03/16 10:57:36;;;;;;;;;;;;;;;;;;4969011;28;20024;-74
2024/03/16 11:00:12;;;;;;;;;;;;;;;;;;4969249;28;19934;-75
2024/03/16 11:02:39;;;;;;;;;;;;;;;;;;4966015;28;19937;-71
2024/03/16 11:05:06;;;;;;;;;;;;;;;;;;4959542;28;20015;-71
2024/03/16 11:07:40;;;;;;;;;;;;;;;;;;4964649;28;19937;-73
2024/03/16 11:10:09;;;;;;;;;;;;;;;;;;4969748;28;20395;-75
2024/03/16 11:12:44;;;;;;;;;;;;;;;;;;4968982;28;19972;-74
2024/03/16 11:15:11;;;;;;;;;;;;;;;;;;4967445;28;20443;-74
2024/03/16 11:17:39;;;;;;;;;;;;;;;;;;4965815;28;19930;-73
2024/03/16 11:20:06;;;;;;;;;;;;;;;;;;4955397;28;19964;-74
2024/03/16 11:22:33;;;;;;;;;;;;;;;;;;4962774;28;19930;-68
2024/03/16 11:25:02;;;;;;;;;;;;;;;;;;4968027;28;19930;-68
2024/03/16 11:27:29;;;;;;;;;;;;;;;;;;4966101;28;19933;-67
2024/03/16 11:29:56;;;;;;;;;;;;;;;;;;4965108;28;20314;-67
2024/03/16 11:32:23;;;;;;;;;;;;;;;;;;4963424;28;19962;-67
2024/03/16 11:34:50;;;;;;;;;;;;;;;;;;4968167;28;19934;-67
2024/03/16 11:37:17;;;;;;;;;;;;;;;;;;4960011;28;20706;-67
2024/03/16 11:39:43;;;;;;;;;;;;;;;;;;4961517;28;19931;-67
2024/03/16 11:42:15;;;;;;;;;;;;;;;;;;4967048;28;20404;-68
2024/03/16 11:44:45;;;;;;;;;;;;;;;;;;4968081;28;19938;-67
2024/03/16 11:47:13;;;;;;;;;;;;;;;;;;4963193;28;19930;-67
2024/03/16 11:49:39;;;;;;;;;;;;;;;;;;4962804;28;19931;-73
2024/03/16 11:52:06;;;;;;;;;;;;;;;;;;4968725;28;19969;-73
2024/03/16 11:54:32;;;;;;;;;;;;;;;;;;4979233;28;20405;-74
2024/03/16 11:56:59;;;;;;;;;;;;;;;;;;4971073;28;20388;-74
2024/03/16 11:59:26;;;;;;;;;;;;;;;;;;4964784;28;19930;-74
2024/03/16 12:01:53;;;;;;;;;;;;;;;;;;4966731;28;19961;-74
2024/03/16 12:04:20;;;;;;;;;;;;;;;;;;4954528;28;19965;-73
2024/03/16 12:06:46;;;;;;;;;;;;;;;;;;4966641;28;20785;-73
2024/03/16 12:09:15;;;;;;;;;;;;;;;;;;4965186;28;19930;-74
2024/03/16 12:11:41;;;;;;;;;;;;;;;;;;4957075;28;19934;-74
2024/03/16 12:14:09;;;;;;;;;;;;;;;;;;4953559;28;20352;-73
2024/03/16 12:16:35;;;;;;;;;;;;;;;;;;4970362;28;19988;-73
2024/03/16 12:19:02;;;;;;;;;;;;;;;;;;4960074;28;20823;-73
2024/03/16 12:21:29;;;;;;;;;;;;;;;;;;4959476;28;19934;-73
2024/03/16 12:23:56;;;;;;;;;;;;;;;;;;4967836;28;19938;-74
2024/03/16 12:26:23;;;;;;;;;;;;;;;;;;4968300;28;19938;-73
2024/03/16 12:28:53;;;;;;;;;;;;;;;;;;4969623;28;19937;-74
2024/03/16 12:34:04;;;;;;;;;;;;;;;;;;4962063;28;19920;-73
2024/03/16 12:36:31;;;;;;;;;;;;;;;;;;4965044;28;20000;-72
2024/03/16 12:38:58;;;;;;;;;;;;;;;;;;4982937;28;19929;-72
2024/03/16 12:41:24;;;;;;;;;;;;;;;;;;4964872;28;19930;-73
2024/03/16 12:43:51;;;;;;;;;;;;;;;;;;4968226;28;19937;-72
2024/03/16 12:46:17;;;;;;;;;;;;;;;;;;4963875;28;19958;-71
2024/03/16 12:48:44;;;;;;;;;;;;;;;;;;4968660;28;19930;-72
2024/03/16 12:51:11;;;;;;;;;;;;;;;;;;4975114;28;20313;-73
2024/03/16 12:53:38;;;;;;;;;;;;;;;;;;4969049;28;19942;-72
2024/03/16 12:56:07;;;;;;;;;;;;;;;;;;4965824;28;19991;-72
2024/03/16 12:58:34;;;;;;;;;;;;;;;;;;4965100;28;20426;-72
2024/03/16 13:01:00;;;;;;;;;;;;;;;;;;4966822;28;19933;-72
2024/03/16 13:03:27;;;;;;;;;;;;;;;;;;4969474;28;19977;-72
2024/03/16 13:05:53;;;;;;;;;;;;;;;;;;4956827;28;20013;-73
2024/03/16 13:08:21;;;;;;;;;;;;;;;;;;4953712;28;19930;-72
2024/03/16 13:10:47;;;;;;;;;;;;;;;;;;4960068;28;19930;-73
2024/03/16 13:13:15;;;;;;;;;;;;;;;;;;4955573;28;19988;-72
2024/03/16 13:15:44;;;;;;;;;;;;;;;;;;4965897;28;19934;-71
2024/03/16 13:18:13;;;;;;;;;;;;;;;;;;4956080;28;19930;-72
2024/03/16 13:20:39;;;;;;;;;;;;;;;;;;4957506;28;20021;-73
2024/03/16 13:23:06;;;;;;;;;;;;;;;;;;4963713;28;19930;-74
2024/03/16 13:25:33;;;;;;;;;;;;;;;;;;4958580;28;19949;-72
2024/03/16 13:28:00;;;;;;;;;;;;;;;;;;4954346;28;20115;-71
2024/03/16 13:30:26;;;;;;;;;;;;;;;;;;4967528;28;19983;-71
2024/03/16 13:32:53;;;;;;;;;;;;;;;;;;4961558;28;19965;-71
2024/03/16 13:35:19;;;;;;;;;;;;;;;;;;4960143;28;19930;-71
2024/03/16 13:37:46;;;;;;;;;;;;;;;;;;4955135;28;19930;-72
2024/03/16 13:40:12;;;;;;;;;;;;;;;;;;4967230;28;20005;-71
2024/03/16 13:42:41;;;;;;;;;;;;;;;;;;4967053;28;19934;-72
2024/03/16 13:45:07;;;;;;;;;;;;;;;;;;4966747;28;20381;-72
2024/03/16 13:47:36;;;;;;;;;;;;;;;;;;4967338;28;19934;-72
2024/03/16 13:50:04;;;;;;;;;;;;;;;;;;4963805;28;19934;-73
2024/03/16 13:52:32;;;;;;;;;;;;;;;;;;4967368;28;19936;-71
2024/03/16 13:54:58;;;;;;;;;;;;;;;;;;4960821;28;20249;-74
2024/03/16 13:57:26;;;;;;;;;;;;;;;;;;4967674;28;20556;-71
2024/03/16 13:59:52;;;;;;;;;;;;;;;;;;4967638;28;19976;-71
2024/03/16 14:02:19;;;;;;;;;;;;;;;;;;4959245;28;19937;-71
2024/03/16 14:04:46;;;;;;;;;;;;;;;;;;4965427;28;19952;-71
2024/03/16 14:07:13;;;;;;;;;;;;;;;;;;4967040;28;19930;-71
2024/03/16 14:09:39;;;;;;;;;;;;;;;;;;4965946;28;20021;-71
2024/03/16 14:12:06;;;;;;;;;;;;;;;;;;4962624;28;19938;-72
2024/03/16 14:14:33;;;;;;;;;;;;;;;;;;4955453;28;19937;-74
2024/03/16 14:17:00;;;;;;;;;;;;;;;;;;4962731;28;19957;-72
2024/03/16 14:19:26;;;;;;;;;;;;;;;;;;4969818;28;19933;-71
2024/03/16 14:21:54;;;;;;;;;;;;;;;;;;4970444;28;20301;-72
2024/03/16 14:24:20;;;;;;;;;;;;;;;;;;4969706;28;19976;-71
2024/03/16 14:26:47;;;;;;;;;;;;;;;;;;4968763;28;20000;-72
2024/03/16 14:29:13;;;;;;;;;;;;;;;;;;4970004;28;19930;-74
2024/03/16 14:31:40;;;;;;;;;;;;;;;;;;4969854;28;19930;-72
2024/03/16 14:34:07;;;;;;;;;;;;;;;;;;4966406;28;20356;-72
2024/03/16 14:36:35;;;;;;;;;;;;;;;;;;4959083;28;19970;-72
2024/03/16 14:39:05;;;;;;;;;;;;;;;;;;4964021;28;19946;-71
2024/03/16 14:41:32;;;;;;;;;;;;;;;;;;4969481;28;19937;-72
2024/03/16 14:43:58;;;;;;;;;;;;;;;;;;4966634;28;19930;-73
2024/03/16 14:46:25;;;;;;;;;;;;;;;;;;4960076;28;19932;-71
2024/03/16 14:48:53;;;;;;;;;;;;;;;;;;4968464;28;20348;-72
2024/03/16 14:51:20;;;;;;;;;;;;;;;;;;4962182;28;20415;-72
2024/03/16 14:53:46;;;;;;;;;;;;;;;;;;4969219;28;19934;-72
2024/03/16 14:56:13;;;;;;;;;;;;;;;;;;4964274;28;20321;-71
2024/03/16 14:58:39;;;;;;;;;;;;;;;;;;4960358;28;20400;-72
2024/03/16 15:01:06;;;;;;;;;;;;;;;;;;4960163;28;19930;-71
2024/03/16 15:03:32;;;;;;;;;;;;;;;;;;4968805;28;19934;-72
2024/03/16 15:06:00;;;;;;;;;;;;;;;;;;4969371;28;19934;-72
2024/03/16 15:08:26;;;;;;;;;;;;;;;;;;4969447;28;19977;-72
2024/03/16 15:10:53;;;;;;;;;;;;;;;;;;4968365;28;19976;-71
2024/03/16 15:13:19;;;;;;;;;;;;;;;;;;4967857;28;19930;-72
2024/03/16 15:15:46;;;;;;;;;;;;;;;;;;4960691;28;19954;-70
2024/03/16 15:18:12;;;;;;;;;;;;;;;;;;4967890;28;19980;-70
2024/03/16 15:20:39;;;;;;;;;;;;;;;;;;4968620;28;19932;-71
2024/03/16 15:23:06;;;;;;;;;;;;;;;;;;4968667;28;19930;-71
2024/03/16 15:25:50;;;;;;;;;;;;;;;;;;4968249;28;19966;-72
2024/03/16 15:28:28;;;;;;;;;;;;;;;;;;4956611;28;20377;-72
2024/03/16 15:30:54;;;;;;;;;;;;;;;;;;4968587;28;19944;-72
2024/03/16 15:33:22;;;;;;;;;;;;;;;;;;4961542;28;20067;-73
2024/03/16 15:35:48;;;;;;;;;;;;;;;;;;4967332;28;20347;-72
2024/03/16 15:38:15;;;;;;;;;;;;;;;;;;4967171;28;19926;-72
2024/03/16 15:40:41;;;;;;;;;;;;;;;;;;4969070;28;20646;-72
2024/03/16 15:43:08;;;;;;;;;;;;;;;;;;4966640;28;19930;-72
2024/03/16 15:45:34;;;;;;;;;;;;;;;;;;4966659;28;19930;-73
2024/03/16 15:48:02;;;;;;;;;;;;;;;;;;4955280;28;19938;-71
2024/03/16 15:50:28;;;;;;;;;;;;;;;;;;4964554;28;19930;-73
2024/03/16 15:52:55;;;;;;;;;;;;;;;;;;4968296;28;20030;-73
2024/03/16 15:55:21;;;;;;;;;;;;;;;;;;4963132;28;19984;-74
2024/03/16 15:57:48;;;;;;;;;;;;;;;;;;4963953;28;19941;-72
2024/03/16 16:00:14;;;;;;;;;;;;;;;;;;4967991;28;20414;-73
2024/03/16 16:02:41;;;;;;;;;;;;;;;;;;4963072;28;19937;-72
2024/03/16 16:05:07;;;;;;;;;;;;;;;;;;4968387;28;19969;-72
2024/03/16 16:07:34;;;;;;;;;;;;;;;;;;4961489;28;19930;-72
2024/03/16 16:10:01;;;;;;;;;;;;;;;;;;4964718;28;19970;-72
2024/03/16 16:12:29;;;;;;;;;;;;;;;;;;4961433;28;19926;-73
2024/03/16 16:14:55;;;;;;;;;;;;;;;;;;4967235;28;19934;-72
2024/03/16 16:17:22;;;;;;;;;;;;;;;;;;4961428;28;20393;-72
2024/03/16 16:19:48;;;;;;;;;;;;;;;;;;4966057;28;20392;-71
2024/03/16 16:22:15;;;;;;;;;;;;;;;;;;4970381;28;19937;-73
2024/03/16 16:24:41;;;;;;;;;;;;;;;;;;4961976;28;20343;-74
2024/03/16 16:27:10;;;;;;;;;;;;;;;;;;4958947;28;20483;-75
2024/03/16 16:29:36;;;;;;;;;;;;;;;;;;4970664;28;20035;-74
2024/03/16 16:32:03;;;;;;;;;;;;;;;;;;4965920;28;19934;-73
2024/03/16 16:34:29;;;;;;;;;;;;;;;;;;4965019;28;19936;-73
2024/03/16 16:36:57;;;;;;;;;;;;;;;;;;4966175;28;19958;-73
2024/03/16 16:39:23;;;;;;;;;;;;;;;;;;4961219;28;19940;-73
2024/03/16 16:41:50;;;;;;;;;;;;;;;;;;4964327;28;20385;-73
2024/03/16 16:44:16;;;;;;;;;;;;;;;;;;4972211;28;19934;-75
2024/03/16 16:46:44;;;;;;;;;;;;;;;;;;4968726;28;19934;-73
2024/03/16 16:49:10;;;;;;;;;;;;;;;;;;4965957;28;19975;-75